Time;durP1;ratioP1;P1;durP2;ratioP2;P2;SDS_P1;SDS_P2;PMS_P1;PMS_P2;Temp;Humidity;BMP_temperature;BMP_pressure;BME280_temperature;BME280_humidity;BME280_pressure;Samples;Min_cycle;Max_cycle;Signal;HPM_P1;HPM_P2
2021/11/11 00:01:47;;;;;;;11.20;7.47;;;;;;;10.35;44.03;102074.34;5004642;28;20143;-69
2021/11/11 00:04:18;;;;;;;13.68;8.90;;;;;;;10.34;44.16;102078.91;4995297;28;20435;-68
2021/11/11 00:06:46;;;;;;;14.27;8.68;;;;;;;10.32;44.01;102078.06;4989576;28;20081;-68
2021/11/11 00:09:13;;;;;;;12.02;8.18;;;;;;;10.32;43.95;102077.19;4997842;28;20134;-69
2021/11/11 00:11:42;;;;;;;11.38;7.68;;;;;;;10.30;44.00;102079.97;4992746;28;20125;-69
2021/11/11 00:14:09;;;;;;;11.05;7.60;;;;;;;10.29;44.29;102073.66;4998293;28;20801;-69
2021/11/11 00:16:36;;;;;;;10.93;7.75;;;;;;;10.28;43.91;102073.75;4997262;28;20428;-69
2021/11/11 00:19:03;;;;;;;11.35;8.20;;;;;;;10.27;44.02;102080.13;5003826;28;20483;-68
2021/11/11 00:21:29;;;;;;;13.35;8.30;;;;;;;10.25;43.98;102073.88;5016952;28;21001;-71
2021/11/11 00:23:56;;;;;;;11.82;8.07;;;;;;;10.24;43.87;102075.72;5016494;28;20157;-69
2021/11/11 00:26:22;;;;;;;14.18;8.82;;;;;;;10.23;44.06;102073.94;5019722;28;20211;-68
2021/11/11 00:28:49;;;;;;;11.88;7.93;;;;;;;10.22;43.96;102063.16;5012197;28;20136;-68
2021/11/11 00:31:16;;;;;;;13.13;8.05;;;;;;;10.21;44.06;102066.84;5015319;28;20052;-69
2021/11/11 00:33:42;;;;;;;13.27;7.85;;;;;;;10.19;43.92;102057.91;5024456;28;20124;-69
2021/11/11 00:36:09;;;;;;;13.23;7.80;;;;;;;10.18;44.05;102050.69;5026148;28;20745;-69
2021/11/11 00:38:36;;;;;;;12.02;8.13;;;;;;;10.17;44.19;102052.53;5017492;28;20089;-69
2021/11/11 00:41:03;;;;;;;12.20;7.85;;;;;;;10.16;44.15;102039.00;5003976;28;20555;-69
2021/11/11 00:43:29;;;;;;;11.15;7.88;;;;;;;10.14;44.16;102044.47;4999009;28;20069;-69
2021/11/11 00:45:56;;;;;;;11.30;7.63;;;;;;;10.13;44.07;102042.72;5021049;28;20132;-68
2021/11/11 00:48:23;;;;;;;10.88;7.78;;;;;;;10.11;44.07;102041.94;5000885;28;20050;-69
2021/11/11 00:50:49;;;;;;;11.98;8.00;;;;;;;10.10;44.10;102033.84;5011265;28;20045;-69
2021/11/11 00:53:16;;;;;;;10.90;8.05;;;;;;;10.09;43.90;102037.50;5021270;28;20049;-69
2021/11/11 00:55:42;;;;;;;10.98;7.53;;;;;;;10.08;44.05;102038.47;5005786;28;20108;-69
2021/11/11 00:58:09;;;;;;;12.18;7.25;;;;;;;10.07;44.08;102032.16;5002740;28;20543;-69
2021/11/11 01:00:37;;;;;;;11.32;7.50;;;;;;;10.06;44.07;102040.34;4999709;28;20050;-69
2021/11/11 01:03:06;;;;;;;12.02;8.18;;;;;;;10.05;44.04;102036.75;4996582;28;20053;-69
2021/11/11 01:05:34;;;;;;;12.15;7.57;;;;;;;10.04;44.09;102031.44;5022077;28;20115;-69
2021/11/11 01:08:01;;;;;;;11.63;8.63;;;;;;;10.01;44.21;102026.13;5013097;28;20517;-69
2021/11/11 01:10:28;;;;;;;12.65;8.38;;;;;;;10.00;44.01;102027.97;5022280;28;20060;-69
2021/11/11 01:12:55;;;;;;;9.88;7.88;;;;;;;9.99;43.95;102025.31;5016690;28;20136;-69
2021/11/11 01:15:26;;;;;;;12.20;7.90;;;;;;;9.99;44.08;102026.19;5014305;28;20060;-69
2021/11/11 01:17:53;;;;;;;11.55;8.20;;;;;;;9.95;44.07;102023.72;5016725;28;20475;-69
2021/11/11 01:20:20;;;;;;;11.05;7.93;;;;;;;9.94;44.03;102017.41;5024549;28;20061;-69
2021/11/11 01:22:49;;;;;;;10.60;7.45;;;;;;;9.93;43.99;102012.91;5017120;28;20137;-69
2021/11/11 01:25:20;;;;;;;12.75;8.15;;;;;;;9.91;44.23;102014.81;5013971;28;20137;-69
2021/11/11 01:27:47;;;;;;;12.25;7.40;;;;;;;9.89;44.19;102014.00;5009254;28;20124;-69
2021/11/11 01:30:15;;;;;;;13.63;7.90;;;;;;;9.88;44.25;102014.97;5022576;28;20088;-69
2021/11/11 01:32:41;;;;;;;11.73;7.88;;;;;;;9.87;44.26;102010.50;4992265;28;20049;-69
2021/11/11 01:35:09;;;;;;;12.18;8.13;;;;;;;9.86;44.03;102008.72;5021878;28;20136;-69
2021/11/11 01:37:37;;;;;;;11.60;7.85;;;;;;;9.84;44.20;102008.78;5017879;28;20060;-69
2021/11/11 01:40:06;;;;;;;12.32;8.18;;;;;;;9.84;44.08;102013.34;5024190;28;20674;-68
2021/11/11 01:42:42;;;;;;;12.02;7.78;;;;;;;9.83;44.32;102001.59;5023300;28;20076;-69
2021/11/11 01:45:08;;;;;;;12.30;7.53;;;;;;;9.78;44.24;102000.94;5020682;28;20511;-69
2021/11/11 01:47:36;;;;;;;12.07;7.75;;;;;;;9.77;44.25;102001.00;5021310;28;20073;-69
2021/11/11 01:50:04;;;;;;;10.57;7.18;;;;;;;9.77;44.17;101998.28;5020159;28;20091;-68
2021/11/11 01:52:30;;;;;;;10.88;7.70;;;;;;;9.75;44.19;102000.19;5006191;28;20129;-69
2021/11/11 01:54:57;;;;;;;11.98;7.70;;;;;;;9.74;44.23;101996.59;5019191;28;20133;-69
2021/11/11 01:57:25;;;;;;;11.50;8.05;;;;;;;9.73;44.04;101991.22;5024627;28;20132;-69
2021/11/11 01:59:52;;;;;;;11.63;7.57;;;;;;;9.72;43.99;101987.63;5019057;28;20053;-69
2021/11/11 02:02:32;;;;;;;11.98;8.10;;;;;;;9.70;44.19;101986.84;5005592;28;20160;-69
2021/11/11 02:04:59;;;;;;;11.15;7.55;;;;;;;9.68;44.18;101990.56;5012591;28;20061;-69
2021/11/11 02:07:25;;;;;;;12.85;8.82;;;;;;;9.67;44.32;101997.81;5019479;28;20133;-68
2021/11/11 02:09:52;;;;;;;11.57;7.53;;;;;;;9.64;44.40;101992.53;4996593;28;20161;-69
2021/11/11 02:12:19;;;;;;;12.30;8.23;;;;;;;9.63;44.08;102001.63;5000529;28;20050;-69
2021/11/11 02:14:46;;;;;;;10.27;7.70;;;;;;;9.61;44.12;102002.66;5014141;28;20132;-69
2021/11/11 02:17:12;;;;;;;13.07;8.65;;;;;;;9.59;44.36;102008.13;5020536;28;20053;-69
2021/11/11 02:19:57;;;;;;;12.20;8.25;;;;;;;9.57;44.58;102001.88;5019563;28;20140;-69
2021/11/11 02:22:24;;;;;;;11.30;7.95;;;;;;;9.53;44.33;102003.88;5018724;28;20168;-68
2021/11/11 02:24:50;;;;;;;12.45;8.10;;;;;;;9.53;44.49;102003.88;5010852;28;20078;-68
2021/11/11 02:27:21;;;;;;;10.43;7.28;;;;;;;9.53;44.42;101994.84;5007391;28;20076;-69
2021/11/11 02:29:48;;;;;;;11.57;7.80;;;;;;;9.52;44.42;101993.97;5007500;28;20049;-69
2021/11/11 02:32:15;;;;;;;12.73;8.10;;;;;;;9.52;44.21;101987.66;4981658;28;20050;-68
2021/11/11 02:34:43;;;;;;;11.82;7.47;;;;;;;9.50;44.24;101990.44;5003297;28;20543;-68
2021/11/11 02:37:09;;;;;;;11.85;7.60;;;;;;;9.49;44.03;101991.38;5006277;28;20092;-69
2021/11/11 02:39:38;;;;;;;11.13;7.82;;;;;;;9.49;44.27;101993.22;4991941;28;20447;-69
2021/11/11 02:42:06;;;;;;;11.38;7.28;;;;;;;9.46;44.30;101993.38;4996774;28;20690;-69
2021/11/11 02:44:33;;;;;;;11.25;7.28;;;;;;;9.47;44.32;102005.97;4989061;28;20076;-69
2021/11/11 02:47:00;;;;;;;10.48;6.80;;;;;;;9.46;44.35;102001.50;5001526;28;20141;-69
2021/11/11 02:49:32;;;;;;;11.50;6.75;;;;;;;9.46;44.42;102007.81;5003286;28;20058;-69
2021/11/11 02:52:00;;;;;;;11.55;7.57;;;;;;;9.43;44.37;102015.19;5014444;28;20042;-68
2021/11/11 02:54:27;;;;;;;12.50;8.02;;;;;;;9.44;44.33;102007.00;5020836;28;20129;-69
2021/11/11 02:56:54;;;;;;;11.73;7.43;;;;;;;9.43;44.39;102002.50;5022479;28;20128;-68
2021/11/11 02:59:20;;;;;;;12.25;7.65;;;;;;;9.43;44.41;102007.94;5019934;28;20085;-69
2021/11/11 03:01:47;;;;;;;10.80;7.38;;;;;;;9.43;44.30;102001.63;4992200;28;20125;-69
2021/11/11 03:04:13;;;;;;;10.13;7.18;;;;;;;9.42;44.30;102000.75;5014907;28;20550;-69
2021/11/11 03:06:40;;;;;;;11.63;7.63;;;;;;;9.41;44.33;102003.50;5028641;28;20477;-69
2021/11/11 03:09:07;;;;;;;12.82;7.63;;;;;;;9.39;44.25;101999.97;5026132;28;20096;-69
2021/11/11 03:11:38;;;;;;;14.70;8.52;;;;;;;9.37;43.91;102002.78;5025981;28;20121;-69
2021/11/11 03:14:05;;;;;;;13.43;8.10;;;;;;;9.35;43.95;102001.09;5017073;28;20058;-69
2021/11/11 03:16:31;;;;;;;11.63;7.50;;;;;;;9.32;43.93;102002.09;5022219;28;20494;-69
2021/11/11 03:18:58;;;;;;;11.63;7.53;;;;;;;9.30;44.09;102004.00;5027040;28;20652;-69
2021/11/11 03:21:24;;;;;;;13.02;7.80;;;;;;;9.27;44.20;102003.25;5018326;28;20614;-69
2021/11/11 03:23:51;;;;;;;10.88;7.45;;;;;;;9.24;44.15;102000.66;5023206;28;20089;-69
2021/11/11 03:26:19;;;;;;;10.43;7.47;;;;;;;9.21;44.14;102007.09;5026891;28;20085;-69
2021/11/11 03:28:46;;;;;;;13.23;7.57;;;;;;;9.19;44.26;101997.28;5026375;28;20143;-69
2021/11/11 03:31:13;;;;;;;9.52;6.45;;;;;;;9.16;44.17;101995.56;5024356;28;20127;-69
2021/11/11 03:33:40;;;;;;;13.48;7.88;;;;;;;9.15;44.20;102000.09;5023268;28;20054;-69
2021/11/11 03:36:06;;;;;;;11.52;7.75;;;;;;;9.13;44.41;102004.72;5017421;28;20137;-69
2021/11/11 03:38:33;;;;;;;11.50;7.30;;;;;;;9.11;44.45;102012.03;5025299;28;20068;-69
2021/11/11 03:40:59;;;;;;;10.45;7.57;;;;;;;9.11;44.40;102008.44;5015585;28;20145;-69
2021/11/11 03:43:26;;;;;;;11.05;7.50;;;;;;;9.10;44.31;102012.97;5011426;28;20085;-69
2021/11/11 03:45:53;;;;;;;10.63;7.25;;;;;;;9.09;44.24;102008.50;5018651;28;20132;-69
2021/11/11 03:48:19;;;;;;;10.45;7.00;;;;;;;9.09;44.28;102011.19;5015984;28;20051;-69
2021/11/11 03:50:46;;;;;;;11.57;7.43;;;;;;;9.08;44.44;102012.16;5014955;28;20133;-69
2021/11/11 03:53:12;;;;;;;13.25;7.90;;;;;;;9.08;44.44;102020.28;5020055;28;20052;-69
2021/11/11 03:55:39;;;;;;;13.02;8.23;;;;;;;9.06;44.48;102016.75;5025142;28;20064;-69
2021/11/11 03:58:06;;;;;;;11.20;7.60;;;;;;;9.06;44.33;102021.28;5025720;28;20132;-69
2021/11/11 04:00:33;;;;;;;12.38;7.93;;;;;;;9.06;44.32;102018.56;5019570;28;20529;-69
2021/11/11 04:03:00;;;;;;;13.57;7.50;;;;;;;9.06;44.47;102019.44;5026087;28;20460;-69
2021/11/11 04:05:26;;;;;;;12.18;7.75;;;;;;;9.05;44.53;102023.13;5008865;28;20129;-68
2021/11/11 04:07:53;;;;;;;10.52;7.80;;;;;;;9.04;44.21;102015.06;5019776;28;20128;-69
2021/11/11 04:10:19;;;;;;;12.88;8.10;;;;;;;9.04;44.34;102015.94;5020923;28;20081;-69
2021/11/11 04:13:04;;;;;;;12.43;7.70;;;;;;;9.02;44.38;102017.84;5018403;28;21783;-69
2021/11/11 04:15:31;;;;;;;10.70;7.10;;;;;;;9.03;44.29;102007.88;5000023;28;20092;-69
2021/11/11 04:17:58;;;;;;;11.93;7.65;;;;;;;9.01;44.35;102004.34;5004411;28;20395;-69
2021/11/11 04:20:25;;;;;;;12.65;7.70;;;;;;;9.01;44.43;102007.94;5021523;28;20669;-69
2021/11/11 04:22:53;;;;;;;11.07;7.90;;;;;;;9.00;44.28;102014.28;5021388;28;20099;-69
2021/11/11 04:25:26;;;;;;;11.38;7.97;;;;;;;9.00;44.22;102016.13;5023394;28;20104;-69
2021/11/11 04:28:03;;;;;;;11.13;7.65;;;;;;;8.98;44.66;102023.41;4993948;28;20128;-69
2021/11/11 04:30:33;;;;;;;11.25;7.03;;;;;;;8.96;44.18;102022.63;5024318;28;20081;-69
2021/11/11 04:33:01;;;;;;;11.75;7.82;;;;;;;8.94;44.38;102025.41;5012022;28;20100;-69
2021/11/11 04:35:28;;;;;;;12.50;7.00;;;;;;;8.92;44.54;102027.28;5017559;28;20060;-69
2021/11/11 04:38:27;;;;;;;12.40;7.15;;;;;;;8.92;44.33;102016.44;5018099;28;20072;-68
2021/11/11 05:08:06;;;;;;;10.90;7.22;;;;;;;8.76;44.81;102045.09;4926908;29;20616;-84
2021/11/11 05:22:02;;;;;;;11.30;6.72;;;;;;;8.66;44.69;102046.41;4911213;29;20059;-83
2021/11/11 05:24:31;;;;;;;10.90;6.60;;;;;;;8.68;44.58;102052.66;4907837;29;20203;-84
2021/11/11 05:27:04;;;;;;;12.93;7.63;;;;;;;8.68;44.47;102052.66;4917223;29;20071;-84
2021/11/11 05:29:32;;;;;;;11.98;7.72;;;;;;;8.66;44.51;102051.81;4930925;29;20055;-84
2021/11/11 05:31:58;;;;;;;11.23;7.30;;;;;;;8.67;44.71;102054.47;4927683;29;20139;-83
2021/11/11 05:34:25;;;;;;;10.57;6.65;;;;;;;8.68;44.76;102053.53;4926032;29;20127;-84
2021/11/11 05:37:20;;;;;;;12.60;7.97;;;;;;;8.70;44.96;102050.78;4931312;29;20055;-84
2021/11/11 05:39:47;;;;;;;11.05;7.38;;;;;;;8.67;44.78;102054.47;4925328;28;20050;-84
2021/11/11 05:42:14;;;;;;;10.48;7.50;;;;;;;8.67;44.71;102057.19;4979212;28;20085;-84
2021/11/11 05:44:40;;;;;;;12.05;7.40;;;;;;;8.68;44.54;102058.06;4983690;28;20133;-84
2021/11/11 05:50:55;;;;;;;12.07;7.38;;;;;;;8.62;44.71;102059.19;5003601;28;20048;-84
2021/11/11 05:53:23;;;;;;;12.10;7.50;;;;;;;8.63;44.55;102062.78;4980465;28;20625;-84
2021/11/11 05:55:51;;;;;;;12.48;8.65;;;;;;;8.62;44.64;102064.59;5018399;28;20042;-83
2021/11/11 05:58:17;;;;;;;14.32;8.02;;;;;;;8.61;44.83;102070.09;5000000;28;20038;-83
2021/11/11 06:00:44;;;;;;;16.05;8.52;;;;;;;8.60;44.68;102063.78;4996114;28;20100;-83
2021/11/11 06:03:11;;;;;;;12.45;7.13;;;;;;;8.60;44.62;102063.78;4984845;28;20720;-83
2021/11/11 06:05:39;;;;;;;12.70;7.38;;;;;;;8.59;44.63;102062.00;4986406;28;20057;-84
2021/11/11 06:08:06;;;;;;;11.60;7.95;;;;;;;8.60;44.65;102069.19;4992897;28;20045;-84
2021/11/11 06:10:33;;;;;;;12.20;7.22;;;;;;;8.60;44.66;102068.31;4990203;28;20076;-83
2021/11/11 06:13:03;;;;;;;13.07;7.90;;;;;;;8.59;44.60;102062.00;4993053;28;20077;-85
2021/11/11 06:15:30;;;;;;;13.68;8.27;;;;;;;8.56;44.56;102048.63;4964884;28;20097;-85
2021/11/11 06:17:59;;;;;;;9.57;7.15;;;;;;;8.57;44.68;102063.00;4985285;28;20482;-84
2021/11/11 06:20:33;;;;;;;12.38;7.88;;;;;;;8.56;44.58;102067.56;4990914;28;20084;-85
2021/11/11 06:23:06;;;;;;;12.75;8.10;;;;;;;8.57;44.87;102065.72;4991429;28;20405;-85
2021/11/11 06:25:34;;;;;;;12.00;7.65;;;;;;;8.55;44.68;102073.91;4985513;28;20505;-85
2021/11/11 06:28:02;;;;;;;12.40;8.15;;;;;;;8.56;44.74;102066.69;4994193;28;20076;-85
2021/11/11 06:30:30;;;;;;;13.13;7.97;;;;;;;8.53;44.38;102073.09;4994282;28;20046;-86
2021/11/11 06:32:56;;;;;;;11.52;8.00;;;;;;;8.51;44.61;102074.97;4991197;28;20409;-84
2021/11/11 06:35:32;;;;;;;14.02;8.15;;;;;;;8.50;44.86;102077.72;4990892;28;20052;-86
2021/11/11 06:38:01;;;;;;;15.38;7.95;;;;;;;8.47;44.52;102078.75;4995940;28;20053;-85
2021/11/11 06:40:29;;;;;;;13.07;8.15;;;;;;;8.45;44.89;102080.63;5012888;28;20049;-84
2021/11/11 06:42:56;;;;;;;12.10;7.88;;;;;;;8.44;44.64;102084.25;4995035;28;20063;-84
2021/11/11 06:45:25;;;;;;;12.57;8.13;;;;;;;8.44;44.77;102088.78;4990584;28;20298;-84
2021/11/11 06:47:52;;;;;;;12.80;7.80;;;;;;;8.42;44.96;102090.66;4987567;28;20073;-84
2021/11/11 06:50:20;;;;;;;11.88;7.93;;;;;;;8.42;44.99;102096.09;4990676;28;20502;-84
2021/11/11 06:52:47;;;;;;;13.45;8.18;;;;;;;8.40;44.87;102098.84;5008286;28;20106;-85
2021/11/11 06:55:14;;;;;;;10.50;7.35;;;;;;;8.40;45.16;102107.84;4982721;28;20065;-85
2021/11/11 06:57:40;;;;;;;13.00;7.72;;;;;;;8.40;45.15;102115.97;4995262;28;20050;-85
2021/11/11 07:00:09;;;;;;;12.23;8.07;;;;;;;8.45;45.09;102120.34;5008050;28;20054;-84
2021/11/11 07:02:36;;;;;;;12.68;7.80;;;;;;;8.44;45.19;102127.56;4995753;28;20052;-84
2021/11/11 07:05:04;;;;;;;11.38;8.15;;;;;;;8.46;45.09;102125.69;4984521;28;20108;-79
2021/11/11 07:19:47;;;;;;;10.02;6.45;;;;;;;8.45;45.55;102117.63;5002632;28;20577;-85
2021/11/11 07:22:45;;;;;;;10.02;6.47;;;;;;;8.45;45.35;102120.34;4937845;29;20051;-83
2021/11/11 07:37:48;;;;;;;13.32;8.65;;;;;;;8.45;45.81;102142.88;4860241;29;20060;-83
2021/11/11 07:40:33;;;;;;;11.25;7.18;;;;;;;8.47;45.28;102157.25;4804913;29;20063;-83
2021/11/11 07:47:33;;;;;;;13.57;8.55;;;;;;;8.46;45.83;102155.47;4801370;29;20578;-84
2021/11/11 07:50:48;;;;;;;;;;;;;;;8.24;46.16;102149.91;4803929;29;20065;-83
2021/11/11 07:53:30;;;;;;;13.00;7.50;;;;;;;8.41;45.35;102160.16;4808973;29;19929;-83
2021/11/11 07:55:57;;;;;;;13.07;8.65;;;;;;;8.44;45.60;102165.47;4823083;29;20061;-84
2021/11/11 08:06:06;;;;;;;13.63;8.80;;;;;;;8.37;45.56;102167.50;4874586;29;20105;-84
2021/11/11 08:09:29;;;;;;;10.35;7.43;;;;;;;8.39;46.03;102159.34;4868134;29;20093;-83
2021/11/11 08:15:27;;;;;;;11.90;7.38;;;;;;;8.38;45.98;102160.28;4882338;29;20108;-83
2021/11/11 08:17:54;;;;;;;11.70;6.97;;;;;;;8.42;45.91;102161.91;4861701;29;20493;-82
2021/11/11 08:28:02;;;;;;;14.30;8.68;;;;;;;8.45;46.17;102169.06;4890525;29;20047;-80
2021/11/11 09:12:02;;;;;;;14.77;7.97;;;;;;;8.70;46.72;102167.19;4852263;29;20048;-85
2021/11/11 09:14:50;;;;;;;10.95;7.95;;;;;;;8.78;47.18;102171.38;4813046;29;20053;-86
2021/11/11 09:17:18;;;;;;;13.98;9.10;;;;;;;8.84;46.49;102169.34;4889599;29;20379;-86
2021/11/11 09:23:53;;;;;;;15.15;8.77;;;;;;;8.92;46.63;102175.34;4899576;29;20051;-86
2021/11/11 12:09:58;;;;;;;20.13;12.63;;;;;;;12.54;47.83;102094.81;5009016;28;20152;-85
2021/11/11 13:04:59;;;;;;;22.85;13.00;;;;;;;13.53;45.73;102063.69;4878862;29;20090;-84
2021/11/11 13:16:29;;;;;;;22.90;12.05;;;;;;;13.49;45.56;102040.28;4928894;28;20450;-84
2021/11/11 14:01:53;;;;;;;25.08;14.05;;;;;;;13.39;45.87;102004.50;4909039;29;20106;-84
2021/11/11 15:46:48;;;;;;;23.55;12.77;;;;;;;13.24;46.23;102029.97;4981465;28;20244;-83
2021/11/11 16:29:12;;;;;;;24.73;13.88;;;;;;;13.29;46.04;102036.91;4745930;30;20150;-83
2021/11/11 16:39:26;;;;;;;23.85;13.43;;;;;;;13.28;45.78;102043.31;4692804;30;20073;-82
2021/11/11 16:41:53;;;;;;;26.13;15.02;;;;;;;13.32;46.17;102034.00;4687928;30;20053;-82
2021/11/11 16:44:20;;;;;;;26.50;15.23;;;;;;;13.34;46.06;102036.66;4724021;30;20476;-83
2021/11/11 21:23:21;;;;;;;25.00;14.73;;;;;;;12.50;46.46;101977.94;5004929;28;20049;-86
